Forside
METAR-TAF:

METAR-TAF

Lufthavne :

Roskilde Lufthavn

Roskilde, Danmark

Breddekreds: 55-35N, længdekreds: 012-08E, højde: 44 m

Aktuelle vejr

Denne rapport blev lavet for 23 minutter siden, kl. 23:50 UTC
Vind 5 kt fra vestnordvest
Temperatur 4°C
Fugtighed 93%
Tryk 1027 hPa
Sigt 10 km eller mere

METAR: EKRK 222350Z AUTO 29005KT 9999 OVC010/// 04/03 Q1027

Tid: 01:13 (00:13 UTC)

Vejrudsigter

Denne rapport blev lavet for 49 minutter siden, kl. 23:24 UTC
Foreløbig gælder fra 23 på 00 UTC til 23 på 09 UTC
Vind 6 kt fra vestnordvest
Sigt 10 km eller mere
Brudte skyer i en højde af 1200 ft
ændring
fra 23 på 00 UTC til 23 på 02 UTC
Brudte skyer i en højde af 800 ft
Midlertidig
fra 23 på 02 UTC til 23 på 09 UTC
Sigt: 1000 m
Brudte skyer i en højde af 400 ft
dis

TAF: EKRK 222324Z 2300/2309 30006KT 9999 BKN012 BECMG 2300/2302 BKN008 TEMPO 2302/2309 1000 BR BKN004

Vejrobservationer og prognoser fra mere end 4000 lufthavne (METAR og TAF).

De gule og røde prikker repræsenterer de meteorologiske stationer.

Flyt musen over at se navnet på stationen.

Så klik over at se vejr observationer og prognoser.

At skifte det kort: Klik på de grønne knapper med et sort kors for at zoome ind; på den grønne knap med en bindestreg for at zoome ud; eller på de grønne pile for tilstødende kort.


METAR-TAF: